Spokane, Washington
Current Conditions -  °F | °C
As of 2:53 AM on Saturday 20 Dec 2014 (Local Time) from KSFF Reporting Station
Scattered Clouds Scattered Clouds  
Wind Chill: 37°   Ceiling: Unl
Heat Index: 37°   Visibility: 10mi
Dew Point: 33°   Wind: 3mph
Humidity: 86%   Direction: 70°ENE
Pressure: 29.97"   Gusts: NA
Location:  47.66°N, 117.41°W
Report Text: KSFF 201053Z AUTO 07003KT 10SM FEW100 SCT120 03/01 A2997 RMK AO2 SLP156 T00280006
Loading
Personal Weather Stations






























Interactive Weather Map New forecast layout! Learn more

10-Day Weather Forecast

Advertisements
Track Severe Weather on mobile